sensor_id;sensor_type;location;lat;lon;timestamp;temperature;humidity
15160;DHT22;7680;48.800;9.680;2023-09-08T00:00:23;14.90;99.90
15160;DHT22;7680;48.800;9.680;2023-09-08T00:05:26;14.80;99.90
15160;DHT22;7680;48.800;9.680;2023-09-08T00:10:30;14.80;99.90
15160;DHT22;7680;48.800;9.680;2023-09-08T00:15:34;14.80;99.90
15160;DHT22;7680;48.800;9.680;2023-09-08T00:20:38;14.70;99.90
15160;DHT22;7680;48.800;9.680;2023-09-08T00:25:41;14.70;99.90
15160;DHT22;7680;48.800;9.680;2023-09-08T00:30:46;14.70;99.90
15160;DHT22;7680;48.800;9.680;2023-09-08T00:35:49;14.70;99.90
15160;DHT22;7680;48.800;9.680;2023-09-08T00:40:52;14.50;99.90
15160;DHT22;7680;48.800;9.680;2023-09-08T00:45:57;14.60;99.90
15160;DHT22;7680;48.800;9.680;2023-09-08T00:51:03;14.50;99.90
15160;DHT22;7680;48.800;9.680;2023-09-08T00:56:08;14.50;99.90
15160;DHT22;7680;48.800;9.680;2023-09-08T01:01:13;14.50;99.90
15160;DHT22;7680;48.800;9.680;2023-09-08T01:06:17;14.50;99.90
15160;DHT22;7680;48.800;9.680;2023-09-08T01:11:21;14.50;99.90
15160;DHT22;7680;48.800;9.680;2023-09-08T01:16:25;14.40;99.90
15160;DHT22;7680;48.800;9.680;2023-09-08T01:27:23;14.50;99.90
15160;DHT22;7680;48.800;9.680;2023-09-08T01:32:27;14.50;99.90
15160;DHT22;7680;48.800;9.680;2023-09-08T01:37:31;14.60;99.90
15160;DHT22;7680;48.800;9.680;2023-09-08T01:42:35;14.50;99.90
15160;DHT22;7680;48.800;9.680;2023-09-08T01:47:39;14.50;99.90
15160;DHT22;7680;48.800;9.680;2023-09-08T01:52:42;14.40;99.90
15160;DHT22;7680;48.800;9.680;2023-09-08T01:57:47;14.40;99.90
15160;DHT22;7680;48.800;9.680;2023-09-08T02:02:50;14.30;99.90
15160;DHT22;7680;48.800;9.680;2023-09-08T02:07:53;14.30;99.90
15160;DHT22;7680;48.800;9.680;2023-09-08T02:12:58;14.40;99.90
15160;DHT22;7680;48.800;9.680;2023-09-08T02:18:02;14.40;99.90
15160;DHT22;7680;48.800;9.680;2023-09-08T02:23:06;14.30;99.90
15160;DHT22;7680;48.800;9.680;2023-09-08T02:28:11;14.20;99.90
15160;DHT22;7680;48.800;9.680;2023-09-08T02:33:14;14.10;99.90
15160;DHT22;7680;48.800;9.680;2023-09-08T02:38:17;13.90;99.90
15160;DHT22;7680;48.800;9.680;2023-09-08T02:43:22;13.70;99.90
15160;DHT22;7680;48.800;9.680;2023-09-08T02:48:25;13.80;99.90
15160;DHT22;7680;48.800;9.680;2023-09-08T02:53:28;13.80;99.90
15160;DHT22;7680;48.800;9.680;2023-09-08T02:58:33;13.80;99.90
15160;DHT22;7680;48.800;9.680;2023-09-08T03:03:37;13.70;99.90
15160;DHT22;7680;48.800;9.680;2023-09-08T03:08:40;13.70;99.90
15160;DHT22;7680;48.800;9.680;2023-09-08T03:13:45;13.60;99.90
15160;DHT22;7680;48.800;9.680;2023-09-08T03:18:48;13.60;99.90
15160;DHT22;7680;48.800;9.680;2023-09-08T03:23:51;13.60;99.90
15160;DHT22;7680;48.800;9.680;2023-09-08T03:28:56;13.70;99.90
15160;DHT22;7680;48.800;9.680;2023-09-08T03:33:59;13.90;99.90
15160;DHT22;7680;48.800;9.680;2023-09-08T03:39:03;13.80;99.90
15160;DHT22;7680;48.800;9.680;2023-09-08T03:44:08;13.70;99.90
15160;DHT22;7680;48.800;9.680;2023-09-08T03:49:11;13.60;99.90
15160;DHT22;7680;48.800;9.680;2023-09-08T03:54:14;13.50;99.90
15160;DHT22;7680;48.800;9.680;2023-09-08T03:59:19;13.60;99.90
15160;DHT22;7680;48.800;9.680;2023-09-08T04:04:23;13.50;99.90
15160;DHT22;7680;48.800;9.680;2023-09-08T04:09:26;13.50;99.90
15160;DHT22;7680;48.800;9.680;2023-09-08T04:14:31;13.50;99.90
15160;DHT22;7680;48.800;9.680;2023-09-08T04:19:36;13.40;99.90
15160;DHT22;7680;48.800;9.680;2023-09-08T04:24:39;13.30;99.90
15160;DHT22;7680;48.800;9.680;2023-09-08T04:29:43;13.20;99.90
15160;DHT22;7680;48.800;9.680;2023-09-08T04:34:47;13.10;99.90
15160;DHT22;7680;48.800;9.680;2023-09-08T04:39:51;13.10;99.90
15160;DHT22;7680;48.800;9.680;2023-09-08T04:44:55;13.10;99.90
15160;DHT22;7680;48.800;9.680;2023-09-08T04:49:58;13.10;99.90
15160;DHT22;7680;48.800;9.680;2023-09-08T04:55:02;13.00;99.90
15160;DHT22;7680;48.800;9.680;2023-09-08T05:00:07;13.00;99.90
15160;DHT22;7680;48.800;9.680;2023-09-08T05:05:11;13.00;99.90
15160;DHT22;7680;48.800;9.680;2023-09-08T05:10:15;13.10;99.90
15160;DHT22;7680;48.800;9.680;2023-09-08T05:15:19;13.30;99.90
15160;DHT22;7680;48.800;9.680;2023-09-08T05:20:23;13.40;99.90
15160;DHT22;7680;48.800;9.680;2023-09-08T05:25:26;13.50;99.90
15160;DHT22;7680;48.800;9.680;2023-09-08T05:30:31;13.50;99.90
15160;DHT22;7680;48.800;9.680;2023-09-08T05:35:34;13.50;99.90
15160;DHT22;7680;48.800;9.680;2023-09-08T05:40:38;13.60;99.90
15160;DHT22;7680;48.800;9.680;2023-09-08T05:45:42;13.80;99.90
15160;DHT22;7680;48.800;9.680;2023-09-08T05:50:45;14.40;99.90
15160;DHT22;7680;48.800;9.680;2023-09-08T05:55:49;15.10;99.90
15160;DHT22;7680;48.800;9.680;2023-09-08T06:00:53;15.80;99.90
15160;DHT22;7680;48.800;9.680;2023-09-08T06:05:57;16.40;99.90
15160;DHT22;7680;48.800;9.680;2023-09-08T06:11:00;16.90;99.90
15160;DHT22;7680;48.800;9.680;2023-09-08T06:16:05;17.70;99.90
15160;DHT22;7680;48.800;9.680;2023-09-08T06:21:09;17.60;99.90
15160;DHT22;7680;48.800;9.680;2023-09-08T06:26:13;17.50;99.90
15160;DHT22;7680;48.800;9.680;2023-09-08T06:31:19;18.30;99.90
15160;DHT22;7680;48.800;9.680;2023-09-08T06:36:22;19.20;99.90
15160;DHT22;7680;48.800;9.680;2023-09-08T06:41:25;19.60;99.90
15160;DHT22;7680;48.800;9.680;2023-09-08T06:46:30;19.90;99.90
15160;DHT22;7680;48.800;9.680;2023-09-08T06:51:33;20.20;99.90
15160;DHT22;7680;48.800;9.680;2023-09-08T06:56:36;20.40;99.90
15160;DHT22;7680;48.800;9.680;2023-09-08T07:01:41;21.00;99.90
15160;DHT22;7680;48.800;9.680;2023-09-08T07:06:44;21.60;99.90
15160;DHT22;7680;48.800;9.680;2023-09-08T07:11:48;22.20;99.90
15160;DHT22;7680;48.800;9.680;2023-09-08T07:16:52;22.30;99.90
15160;DHT22;7680;48.800;9.680;2023-09-08T07:21:56;22.40;99.90
15160;DHT22;7680;48.800;9.680;2023-09-08T07:26:59;23.00;99.90
15160;DHT22;7680;48.800;9.680;2023-09-08T07:32:05;23.00;99.90
15160;DHT22;7680;48.800;9.680;2023-09-08T07:37:09;23.40;99.90
15160;DHT22;7680;48.800;9.680;2023-09-08T07:42:12;23.60;99.90
15160;DHT22;7680;48.800;9.680;2023-09-08T07:47:17;23.80;99.90
15160;DHT22;7680;48.800;9.680;2023-09-08T07:52:20;23.80;99.90
15160;DHT22;7680;48.800;9.680;2023-09-08T07:57:23;24.40;98.90
15160;DHT22;7680;48.800;9.680;2023-09-08T08:02:28;24.80;98.40
15160;DHT22;7680;48.800;9.680;2023-09-08T08:07:32;25.20;97.10
15160;DHT22;7680;48.800;9.680;2023-09-08T08:12:35;25.50;97.10
15160;DHT22;7680;48.800;9.680;2023-09-08T08:17:40;26.00;96.80
15160;DHT22;7680;48.800;9.680;2023-09-08T08:22:44;26.30;95.50
15160;DHT22;7680;48.800;9.680;2023-09-08T08:27:48;26.30;94.70
15160;DHT22;7680;48.800;9.680;2023-09-08T08:32:53;26.40;94.30
15160;DHT22;7680;48.800;9.680;2023-09-08T08:37:58;26.40;94.10
15160;DHT22;7680;48.800;9.680;2023-09-08T08:43:02;26.50;94.30
15160;DHT22;7680;48.800;9.680;2023-09-08T08:48:07;27.20;93.70
15160;DHT22;7680;48.800;9.680;2023-09-08T08:53:12;27.20;93.60
15160;DHT22;7680;48.800;9.680;2023-09-08T08:58:15;27.10;93.40
15160;DHT22;7680;48.800;9.680;2023-09-08T09:03:23;27.50;92.90
15160;DHT22;7680;48.800;9.680;2023-09-08T09:08:28;27.80;92.50
15160;DHT22;7680;48.800;9.680;2023-09-08T09:13:32;27.90;92.80
15160;DHT22;7680;48.800;9.680;2023-09-08T09:18:53;27.80;92.30
15160;DHT22;7680;48.800;9.680;2023-09-08T09:23:58;27.60;93.30
15160;DHT22;7680;48.800;9.680;2023-09-08T09:29:01;28.20;92.20
15160;DHT22;7680;48.800;9.680;2023-09-08T09:34:06;27.90;93.10
15160;DHT22;7680;48.800;9.680;2023-09-08T09:39:10;28.10;93.00
15160;DHT22;7680;48.800;9.680;2023-09-08T09:44:13;28.50;92.20
15160;DHT22;7680;48.800;9.680;2023-09-08T09:49:18;28.30;92.00
15160;DHT22;7680;48.800;9.680;2023-09-08T09:54:22;28.20;92.60
15160;DHT22;7680;48.800;9.680;2023-09-08T09:59:25;28.70;91.70
15160;DHT22;7680;48.800;9.680;2023-09-08T10:04:31;28.70;91.50
15160;DHT22;7680;48.800;9.680;2023-09-08T10:09:36;28.90;91.00
15160;DHT22;7680;48.800;9.680;2023-09-08T10:14:41;28.70;92.20
15160;DHT22;7680;48.800;9.680;2023-09-08T10:19:47;28.60;92.30
15160;DHT22;7680;48.800;9.680;2023-09-08T10:24:54;28.80;91.70
15160;DHT22;7680;48.800;9.680;2023-09-08T10:30:00;28.70;91.60
15160;DHT22;7680;48.800;9.680;2023-09-08T10:35:07;28.80;91.60
15160;DHT22;7680;48.800;9.680;2023-09-08T10:40:22;29.10;91.50
15160;DHT22;7680;48.800;9.680;2023-09-08T10:45:25;29.00;91.10
15160;DHT22;7680;48.800;9.680;2023-09-08T10:50:35;28.90;91.10
15160;DHT22;7680;48.800;9.680;2023-09-08T10:55:43;28.20;92.20
15160;DHT22;7680;48.800;9.680;2023-09-08T11:01:13;28.30;92.70
15160;DHT22;7680;48.800;9.680;2023-09-08T11:06:21;28.50;92.20
15160;DHT22;7680;48.800;9.680;2023-09-08T11:11:25;28.40;93.40
15160;DHT22;7680;48.800;9.680;2023-09-08T11:16:30;28.60;92.00
15160;DHT22;7680;48.800;9.680;2023-09-08T11:21:36;28.60;92.00
15160;DHT22;7680;48.800;9.680;2023-09-08T11:26:43;28.60;92.40
15160;DHT22;7680;48.800;9.680;2023-09-08T11:31:52;28.70;91.80
15160;DHT22;7680;48.800;9.680;2023-09-08T11:36:58;28.40;92.40
15160;DHT22;7680;48.800;9.680;2023-09-08T11:42:01;28.30;92.70
15160;DHT22;7680;48.800;9.680;2023-09-08T11:47:07;28.30;92.90
15160;DHT22;7680;48.800;9.680;2023-09-08T11:52:13;28.30;93.10
15160;DHT22;7680;48.800;9.680;2023-09-08T11:57:17;28.50;93.00
15160;DHT22;7680;48.800;9.680;2023-09-08T12:02:20;28.60;93.30
15160;DHT22;7680;48.800;9.680;2023-09-08T12:07:25;28.30;93.10
15160;DHT22;7680;48.800;9.680;2023-09-08T12:12:28;28.30;93.10
15160;DHT22;7680;48.800;9.680;2023-09-08T12:17:31;28.50;93.20
15160;DHT22;7680;48.800;9.680;2023-09-08T12:22:36;28.50;93.20
15160;DHT22;7680;48.800;9.680;2023-09-08T12:27:39;28.80;92.90
15160;DHT22;7680;48.800;9.680;2023-09-08T12:32:44;28.80;93.00
15160;DHT22;7680;48.800;9.680;2023-09-08T12:37:54;28.60;93.60
15160;DHT22;7680;48.800;9.680;2023-09-08T12:43:00;28.50;93.20
15160;DHT22;7680;48.800;9.680;2023-09-08T12:48:24;28.40;93.70
15160;DHT22;7680;48.800;9.680;2023-09-08T12:53:32;28.40;93.00
15160;DHT22;7680;48.800;9.680;2023-09-08T12:58:36;28.50;93.40
15160;DHT22;7680;48.800;9.680;2023-09-08T13:03:39;28.60;93.00
15160;DHT22;7680;48.800;9.680;2023-09-08T13:08:44;28.70;92.50
15160;DHT22;7680;48.800;9.680;2023-09-08T13:13:47;28.60;93.50
15160;DHT22;7680;48.800;9.680;2023-09-08T13:18:50;28.60;93.20
15160;DHT22;7680;48.800;9.680;2023-09-08T13:23:55;28.60;92.80
15160;DHT22;7680;48.800;9.680;2023-09-08T13:28:58;28.60;93.70
15160;DHT22;7680;48.800;9.680;2023-09-08T13:34:02;28.50;92.30
15160;DHT22;7680;48.800;9.680;2023-09-08T13:39:06;28.40;92.50
15160;DHT22;7680;48.800;9.680;2023-09-08T13:44:10;28.60;92.30
15160;DHT22;7680;48.800;9.680;2023-09-08T13:49:13;28.80;91.90
15160;DHT22;7680;48.800;9.680;2023-09-08T13:54:19;28.70;91.70
15160;DHT22;7680;48.800;9.680;2023-09-08T13:59:26;28.60;92.20
15160;DHT22;7680;48.800;9.680;2023-09-08T14:04:35;28.80;92.00
15160;DHT22;7680;48.800;9.680;2023-09-08T14:09:44;28.90;91.20
15160;DHT22;7680;48.800;9.680;2023-09-08T14:14:50;28.80;91.70
15160;DHT22;7680;48.800;9.680;2023-09-08T14:19:53;28.90;91.40
15160;DHT22;7680;48.800;9.680;2023-09-08T14:24:58;28.90;91.50
15160;DHT22;7680;48.800;9.680;2023-09-08T14:30:01;28.90;91.00
15160;DHT22;7680;48.800;9.680;2023-09-08T14:35:06;28.60;92.20
15160;DHT22;7680;48.800;9.680;2023-09-08T14:40:12;28.50;91.90
15160;DHT22;7680;48.800;9.680;2023-09-08T14:45:15;28.50;91.70
15160;DHT22;7680;48.800;9.680;2023-09-08T14:50:18;28.50;91.70
15160;DHT22;7680;48.800;9.680;2023-09-08T14:55:24;28.60;91.30
15160;DHT22;7680;48.800;9.680;2023-09-08T15:00:27;28.70;91.20
15160;DHT22;7680;48.800;9.680;2023-09-08T15:05:31;28.50;91.90
15160;DHT22;7680;48.800;9.680;2023-09-08T15:10:35;28.70;91.40
15160;DHT22;7680;48.800;9.680;2023-09-08T15:15:38;28.50;92.10
15160;DHT22;7680;48.800;9.680;2023-09-08T15:20:50;28.50;91.60
15160;DHT22;7680;48.800;9.680;2023-09-08T15:25:56;28.30;92.20
15160;DHT22;7680;48.800;9.680;2023-09-08T15:31:00;28.20;92.20
15160;DHT22;7680;48.800;9.680;2023-09-08T15:36:05;28.10;92.60
15160;DHT22;7680;48.800;9.680;2023-09-08T15:41:17;27.90;92.90
15160;DHT22;7680;48.800;9.680;2023-09-08T15:46:20;28.00;92.20
15160;DHT22;7680;48.800;9.680;2023-09-08T15:51:24;27.90;92.40
15160;DHT22;7680;48.800;9.680;2023-09-08T15:56:29;28.00;92.60
15160;DHT22;7680;48.800;9.680;2023-09-08T16:01:32;27.90;92.40
15160;DHT22;7680;48.800;9.680;2023-09-08T16:06:36;28.20;91.70
15160;DHT22;7680;48.800;9.680;2023-09-08T16:11:40;28.30;91.70
15160;DHT22;7680;48.800;9.680;2023-09-08T16:16:43;28.20;92.00
15160;DHT22;7680;48.800;9.680;2023-09-08T16:21:47;28.20;92.60
15160;DHT22;7680;48.800;9.680;2023-09-08T16:26:52;28.00;93.60
15160;DHT22;7680;48.800;9.680;2023-09-08T16:31:56;28.00;93.40
15160;DHT22;7680;48.800;9.680;2023-09-08T16:36:59;27.80;94.70
15160;DHT22;7680;48.800;9.680;2023-09-08T16:42:04;27.90;95.10
15160;DHT22;7680;48.800;9.680;2023-09-08T16:47:07;27.70;95.80
15160;DHT22;7680;48.800;9.680;2023-09-08T16:52:10;27.50;96.60
15160;DHT22;7680;48.800;9.680;2023-09-08T16:57:15;27.50;97.40
15160;DHT22;7680;48.800;9.680;2023-09-08T17:02:18;27.20;98.20
15160;DHT22;7680;48.800;9.680;2023-09-08T17:07:22;27.00;98.60
15160;DHT22;7680;48.800;9.680;2023-09-08T17:12:27;26.90;99.30
15160;DHT22;7680;48.800;9.680;2023-09-08T17:17:30;26.60;99.90
15160;DHT22;7680;48.800;9.680;2023-09-08T17:22:33;26.40;99.90
15160;DHT22;7680;48.800;9.680;2023-09-08T17:27:42;26.20;99.90
15160;DHT22;7680;48.800;9.680;2023-09-08T17:32:45;25.90;99.90
15160;DHT22;7680;48.800;9.680;2023-09-08T17:37:48;25.80;99.90
15160;DHT22;7680;48.800;9.680;2023-09-08T17:42:54;25.60;99.90
15160;DHT22;7680;48.800;9.680;2023-09-08T17:47:57;25.30;99.90
15160;DHT22;7680;48.800;9.680;2023-09-08T17:53:00;25.10;99.90
15160;DHT22;7680;48.800;9.680;2023-09-08T17:58:05;24.70;99.90
15160;DHT22;7680;48.800;9.680;2023-09-08T18:03:08;24.50;99.90
15160;DHT22;7680;48.800;9.680;2023-09-08T18:08:16;24.20;99.90
15160;DHT22;7680;48.800;9.680;2023-09-08T18:13:21;23.80;99.90
15160;DHT22;7680;48.800;9.680;2023-09-08T18:18:25;23.60;99.90
15160;DHT22;7680;48.800;9.680;2023-09-08T18:23:29;23.50;99.90
15160;DHT22;7680;48.800;9.680;2023-09-08T18:28:33;23.40;99.90
15160;DHT22;7680;48.800;9.680;2023-09-08T18:33:37;23.30;99.90
15160;DHT22;7680;48.800;9.680;2023-09-08T18:38:40;23.20;99.90
15160;DHT22;7680;48.800;9.680;2023-09-08T18:43:45;23.10;99.90
15160;DHT22;7680;48.800;9.680;2023-09-08T18:48:48;22.80;99.90
15160;DHT22;7680;48.800;9.680;2023-09-08T18:53:53;22.70;99.90
15160;DHT22;7680;48.800;9.680;2023-09-08T18:58:58;22.40;99.90
15160;DHT22;7680;48.800;9.680;2023-09-08T19:04:03;22.30;99.90
15160;DHT22;7680;48.800;9.680;2023-09-08T19:09:08;22.00;99.90
15160;DHT22;7680;48.800;9.680;2023-09-08T19:14:13;21.90;99.90
15160;DHT22;7680;48.800;9.680;2023-09-08T19:19:17;21.70;99.90
15160;DHT22;7680;48.800;9.680;2023-09-08T19:24:21;21.70;99.90
15160;DHT22;7680;48.800;9.680;2023-09-08T19:29:27;21.50;99.90
15160;DHT22;7680;48.800;9.680;2023-09-08T19:34:30;21.50;99.90
15160;DHT22;7680;48.800;9.680;2023-09-08T19:39:33;21.30;99.90
15160;DHT22;7680;48.800;9.680;2023-09-08T19:44:38;21.20;99.90
15160;DHT22;7680;48.800;9.680;2023-09-08T19:49:42;21.10;99.90
15160;DHT22;7680;48.800;9.680;2023-09-08T19:54:45;21.00;99.90
15160;DHT22;7680;48.800;9.680;2023-09-08T19:59:49;20.90;99.90
15160;DHT22;7680;48.800;9.680;2023-09-08T20:04:53;20.80;99.90
15160;DHT22;7680;48.800;9.680;2023-09-08T20:09:56;20.60;99.90
15160;DHT22;7680;48.800;9.680;2023-09-08T20:15:01;20.50;99.90
15160;DHT22;7680;48.800;9.680;2023-09-08T20:20:05;20.40;99.90
15160;DHT22;7680;48.800;9.680;2023-09-08T20:25:09;20.30;99.90
15160;DHT22;7680;48.800;9.680;2023-09-08T20:30:14;20.20;99.90
15160;DHT22;7680;48.800;9.680;2023-09-08T20:35:18;20.00;99.90
15160;DHT22;7680;48.800;9.680;2023-09-08T20:40:21;19.80;99.90
15160;DHT22;7680;48.800;9.680;2023-09-08T20:45:26;19.80;99.90
15160;DHT22;7680;48.800;9.680;2023-09-08T20:50:29;19.60;99.90
15160;DHT22;7680;48.800;9.680;2023-09-08T20:55:32;19.50;99.90
15160;DHT22;7680;48.800;9.680;2023-09-08T21:00:37;19.40;99.90
15160;DHT22;7680;48.800;9.680;2023-09-08T21:05:40;19.40;99.90
15160;DHT22;7680;48.800;9.680;2023-09-08T21:10:45;19.30;99.90
15160;DHT22;7680;48.800;9.680;2023-09-08T21:15:49;19.30;99.90
15160;DHT22;7680;48.800;9.680;2023-09-08T21:20:54;19.20;99.90
15160;DHT22;7680;48.800;9.680;2023-09-08T21:25:57;19.20;99.90
15160;DHT22;7680;48.800;9.680;2023-09-08T21:31:06;19.00;99.90
15160;DHT22;7680;48.800;9.680;2023-09-08T21:36:10;19.00;99.90
15160;DHT22;7680;48.800;9.680;2023-09-08T21:41:16;18.90;99.90
15160;DHT22;7680;48.800;9.680;2023-09-08T21:46:21;19.00;99.90
15160;DHT22;7680;48.800;9.680;2023-09-08T21:51:24;18.90;99.90
15160;DHT22;7680;48.800;9.680;2023-09-08T21:56:27;18.90;99.90
15160;DHT22;7680;48.800;9.680;2023-09-08T22:01:32;18.90;99.90
15160;DHT22;7680;48.800;9.680;2023-09-08T22:06:36;18.80;99.90
15160;DHT22;7680;48.800;9.680;2023-09-08T22:11:39;18.70;99.90
15160;DHT22;7680;48.800;9.680;2023-09-08T22:16:44;18.60;99.90
15160;DHT22;7680;48.800;9.680;2023-09-08T22:21:47;18.60;99.90
15160;DHT22;7680;48.800;9.680;2023-09-08T22:26:50;18.60;99.90
15160;DHT22;7680;48.800;9.680;2023-09-08T22:31:55;18.60;99.90
15160;DHT22;7680;48.800;9.680;2023-09-08T22:36:58;18.60;99.90
15160;DHT22;7680;48.800;9.680;2023-09-08T22:42:01;18.60;99.90
15160;DHT22;7680;48.800;9.680;2023-09-08T22:47:06;18.50;99.90
15160;DHT22;7680;48.800;9.680;2023-09-08T22:52:12;18.30;99.90
15160;DHT22;7680;48.800;9.680;2023-09-08T22:57:15;18.30;99.90
15160;DHT22;7680;48.800;9.680;2023-09-08T23:02:20;18.30;99.90
15160;DHT22;7680;48.800;9.680;2023-09-08T23:07:23;18.30;99.90
15160;DHT22;7680;48.800;9.680;2023-09-08T23:12:26;18.20;99.90
15160;DHT22;7680;48.800;9.680;2023-09-08T23:17:31;18.10;99.90
15160;DHT22;7680;48.800;9.680;2023-09-08T23:22:43;18.10;99.90
15160;DHT22;7680;48.800;9.680;2023-09-08T23:28:54;18.00;99.90
15160;DHT22;7680;48.800;9.680;2023-09-08T23:33:58;18.00;99.90
15160;DHT22;7680;48.800;9.680;2023-09-08T23:39:01;17.80;99.90
15160;DHT22;7680;48.800;9.680;2023-09-08T23:44:10;17.80;99.90
15160;DHT22;7680;48.800;9.680;2023-09-08T23:49:15;17.70;99.90
15160;DHT22;7680;48.800;9.680;2023-09-08T23:54:21;17.50;99.90
15160;DHT22;7680;48.800;9.680;2023-09-08T23:59:27;17.50;99.90
